sensor_id;sensor_type;location;lat;lon;timestamp;temperature;humidity
7218;DHT22;3650;53.580;10.094;2024-03-08T00:02:00;6.50;61.10
7218;DHT22;3650;53.580;10.094;2024-03-08T00:04:27;6.40;61.30
7218;DHT22;3650;53.580;10.094;2024-03-08T00:06:53;6.40;61.30
7218;DHT22;3650;53.580;10.094;2024-03-08T00:09:20;6.40;61.10
7218;DHT22;3650;53.580;10.094;2024-03-08T00:11:48;6.40;61.40
7218;DHT22;3650;53.580;10.094;2024-03-08T00:14:16;6.40;61.50
7218;DHT22;3650;53.580;10.094;2024-03-08T00:16:42;6.40;61.50
7218;DHT22;3650;53.580;10.094;2024-03-08T00:19:09;6.30;62.00
7218;DHT22;3650;53.580;10.094;2024-03-08T00:21:36;6.30;62.10
7218;DHT22;3650;53.580;10.094;2024-03-08T00:24:03;6.30;62.40
7218;DHT22;3650;53.580;10.094;2024-03-08T00:26:30;6.30;62.10
7218;DHT22;3650;53.580;10.094;2024-03-08T00:29:00;6.30;61.80
7218;DHT22;3650;53.580;10.094;2024-03-08T00:31:26;6.30;61.70
7218;DHT22;3650;53.580;10.094;2024-03-08T00:33:53;6.30;61.40
7218;DHT22;3650;53.580;10.094;2024-03-08T00:36:20;6.30;61.40
7218;DHT22;3650;53.580;10.094;2024-03-08T00:38:47;6.30;62.30
7218;DHT22;3650;53.580;10.094;2024-03-08T00:41:13;6.30;62.40
7218;DHT22;3650;53.580;10.094;2024-03-08T00:43:40;6.30;62.00
7218;DHT22;3650;53.580;10.094;2024-03-08T00:46:08;6.20;61.90
7218;DHT22;3650;53.580;10.094;2024-03-08T00:48:35;6.20;62.10
7218;DHT22;3650;53.580;10.094;2024-03-08T00:51:03;6.20;62.30
7218;DHT22;3650;53.580;10.094;2024-03-08T00:53:30;6.20;62.30
7218;DHT22;3650;53.580;10.094;2024-03-08T00:55:57;6.20;62.50
7218;DHT22;3650;53.580;10.094;2024-03-08T00:58:24;6.20;62.20
7218;DHT22;3650;53.580;10.094;2024-03-08T01:00:51;6.20;62.30
7218;DHT22;3650;53.580;10.094;2024-03-08T01:03:19;6.20;62.40
7218;DHT22;3650;53.580;10.094;2024-03-08T01:05:46;6.20;62.10
7218;DHT22;3650;53.580;10.094;2024-03-08T01:08:13;6.20;62.00
7218;DHT22;3650;53.580;10.094;2024-03-08T01:10:39;6.20;62.10
7218;DHT22;3650;53.580;10.094;2024-03-08T01:13:06;6.10;62.00
7218;DHT22;3650;53.580;10.094;2024-03-08T01:15:35;6.10;62.10
7218;DHT22;3650;53.580;10.094;2024-03-08T01:18:02;6.10;62.40
7218;DHT22;3650;53.580;10.094;2024-03-08T01:20:30;6.10;62.40
7218;DHT22;3650;53.580;10.094;2024-03-08T01:22:57;6.00;62.40
7218;DHT22;3650;53.580;10.094;2024-03-08T01:25:23;6.00;62.70
7218;DHT22;3650;53.580;10.094;2024-03-08T01:27:50;6.00;62.70
7218;DHT22;3650;53.580;10.094;2024-03-08T01:30:19;5.90;63.00
7218;DHT22;3650;53.580;10.094;2024-03-08T01:32:46;5.90;63.30
7218;DHT22;3650;53.580;10.094;2024-03-08T01:35:12;5.90;63.40
7218;DHT22;3650;53.580;10.094;2024-03-08T01:37:40;5.80;63.70
7218;DHT22;3650;53.580;10.094;2024-03-08T01:40:08;5.80;63.60
7218;DHT22;3650;53.580;10.094;2024-03-08T01:42:35;5.80;63.80
7218;DHT22;3650;53.580;10.094;2024-03-08T01:45:04;5.70;64.20
7218;DHT22;3650;53.580;10.094;2024-03-08T01:47:31;5.70;64.80
7218;DHT22;3650;53.580;10.094;2024-03-08T01:49:59;5.60;64.60
7218;DHT22;3650;53.580;10.094;2024-03-08T01:52:26;5.60;65.20
7218;DHT22;3650;53.580;10.094;2024-03-08T01:54:55;5.60;65.60
7218;DHT22;3650;53.580;10.094;2024-03-08T01:57:22;5.50;66.30
7218;DHT22;3650;53.580;10.094;2024-03-08T01:59:50;5.50;67.20
7218;DHT22;3650;53.580;10.094;2024-03-08T02:02:20;5.50;67.20
7218;DHT22;3650;53.580;10.094;2024-03-08T02:04:48;5.50;67.20
7218;DHT22;3650;53.580;10.094;2024-03-08T02:07:18;5.40;67.50
7218;DHT22;3650;53.580;10.094;2024-03-08T02:09:45;5.50;68.00
7218;DHT22;3650;53.580;10.094;2024-03-08T02:12:13;5.40;68.00
7218;DHT22;3650;53.580;10.094;2024-03-08T02:14:40;5.40;68.30
7218;DHT22;3650;53.580;10.094;2024-03-08T02:17:08;5.50;68.70
7218;DHT22;3650;53.580;10.094;2024-03-08T02:19:34;5.50;68.80
7218;DHT22;3650;53.580;10.094;2024-03-08T02:22:03;5.40;68.70
7218;DHT22;3650;53.580;10.094;2024-03-08T02:24:31;5.50;68.90
7218;DHT22;3650;53.580;10.094;2024-03-08T02:26:59;5.50;68.70
7218;DHT22;3650;53.580;10.094;2024-03-08T02:29:25;5.50;68.40
7218;DHT22;3650;53.580;10.094;2024-03-08T02:31:52;5.40;68.30
7218;DHT22;3650;53.580;10.094;2024-03-08T02:34:19;5.40;68.00
7218;DHT22;3650;53.580;10.094;2024-03-08T02:36:46;5.40;68.10
7218;DHT22;3650;53.580;10.094;2024-03-08T02:39:14;5.40;68.20
7218;DHT22;3650;53.580;10.094;2024-03-08T02:41:41;5.40;68.20
7218;DHT22;3650;53.580;10.094;2024-03-08T02:44:08;5.40;68.30
7218;DHT22;3650;53.580;10.094;2024-03-08T02:46:35;5.30;68.20
7218;DHT22;3650;53.580;10.094;2024-03-08T02:49:02;5.30;68.40
7218;DHT22;3650;53.580;10.094;2024-03-08T02:51:29;5.30;68.60
7218;DHT22;3650;53.580;10.094;2024-03-08T02:53:56;5.30;68.70
7218;DHT22;3650;53.580;10.094;2024-03-08T02:56:24;5.30;68.70
7218;DHT22;3650;53.580;10.094;2024-03-08T02:58:52;5.30;68.90
7218;DHT22;3650;53.580;10.094;2024-03-08T03:01:19;5.30;68.90
7218;DHT22;3650;53.580;10.094;2024-03-08T03:03:47;5.30;69.00
7218;DHT22;3650;53.580;10.094;2024-03-08T03:06:14;5.30;68.90
7218;DHT22;3650;53.580;10.094;2024-03-08T03:08:42;5.20;68.90
7218;DHT22;3650;53.580;10.094;2024-03-08T03:11:11;5.20;69.20
7218;DHT22;3650;53.580;10.094;2024-03-08T03:13:40;5.20;69.80
7218;DHT22;3650;53.580;10.094;2024-03-08T03:16:08;5.20;69.90
7218;DHT22;3650;53.580;10.094;2024-03-08T03:18:35;5.20;69.80
7218;DHT22;3650;53.580;10.094;2024-03-08T03:21:02;5.20;69.40
7218;DHT22;3650;53.580;10.094;2024-03-08T03:23:33;5.20;69.80
7218;DHT22;3650;53.580;10.094;2024-03-08T03:26:00;5.20;69.90
7218;DHT22;3650;53.580;10.094;2024-03-08T03:28:28;5.20;69.90
7218;DHT22;3650;53.580;10.094;2024-03-08T03:30:56;5.20;70.00
7218;DHT22;3650;53.580;10.094;2024-03-08T03:33:24;5.20;69.80
7218;DHT22;3650;53.580;10.094;2024-03-08T03:35:51;5.20;69.60
7218;DHT22;3650;53.580;10.094;2024-03-08T03:38:18;5.20;70.00
7218;DHT22;3650;53.580;10.094;2024-03-08T03:40:48;5.20;70.30
7218;DHT22;3650;53.580;10.094;2024-03-08T03:43:18;5.20;70.20
7218;DHT22;3650;53.580;10.094;2024-03-08T03:45:44;5.20;70.10
7218;DHT22;3650;53.580;10.094;2024-03-08T03:48:13;5.20;70.30
7218;DHT22;3650;53.580;10.094;2024-03-08T03:50:39;5.10;70.40
7218;DHT22;3650;53.580;10.094;2024-03-08T03:53:07;5.10;70.70
7218;DHT22;3650;53.580;10.094;2024-03-08T03:55:34;5.10;70.90
7218;DHT22;3650;53.580;10.094;2024-03-08T03:58:02;5.20;71.00
7218;DHT22;3650;53.580;10.094;2024-03-08T04:00:29;5.10;70.90
7218;DHT22;3650;53.580;10.094;2024-03-08T04:02:56;5.10;70.40
7218;DHT22;3650;53.580;10.094;2024-03-08T04:05:27;5.00;70.80
7218;DHT22;3650;53.580;10.094;2024-03-08T04:07:54;5.00;70.90
7218;DHT22;3650;53.580;10.094;2024-03-08T04:10:21;5.00;70.90
7218;DHT22;3650;53.580;10.094;2024-03-08T04:12:48;5.00;70.80
7218;DHT22;3650;53.580;10.094;2024-03-08T04:15:14;5.00;70.80
7218;DHT22;3650;53.580;10.094;2024-03-08T04:17:41;5.00;70.90
7218;DHT22;3650;53.580;10.094;2024-03-08T04:20:08;5.00;71.20
7218;DHT22;3650;53.580;10.094;2024-03-08T04:22:37;5.00;71.40
7218;DHT22;3650;53.580;10.094;2024-03-08T04:25:06;4.90;71.30
7218;DHT22;3650;53.580;10.094;2024-03-08T04:27:33;4.90;71.70
7218;DHT22;3650;53.580;10.094;2024-03-08T04:30:00;4.90;71.50
7218;DHT22;3650;53.580;10.094;2024-03-08T04:32:26;4.80;71.60
7218;DHT22;3650;53.580;10.094;2024-03-08T04:34:55;4.90;72.00
7218;DHT22;3650;53.580;10.094;2024-03-08T04:37:22;4.80;72.10
7218;DHT22;3650;53.580;10.094;2024-03-08T04:39:50;4.80;72.70
7218;DHT22;3650;53.580;10.094;2024-03-08T04:42:17;4.80;73.20
7218;DHT22;3650;53.580;10.094;2024-03-08T04:44:44;4.80;73.30
7218;DHT22;3650;53.580;10.094;2024-03-08T04:47:11;4.70;73.90
7218;DHT22;3650;53.580;10.094;2024-03-08T04:49:38;4.70;73.90
7218;DHT22;3650;53.580;10.094;2024-03-08T04:52:05;4.70;73.90
7218;DHT22;3650;53.580;10.094;2024-03-08T04:54:33;4.70;74.40
7218;DHT22;3650;53.580;10.094;2024-03-08T04:57:01;4.70;74.50
7218;DHT22;3650;53.580;10.094;2024-03-08T04:59:28;4.70;74.50
7218;DHT22;3650;53.580;10.094;2024-03-08T05:01:55;4.70;74.70
7218;DHT22;3650;53.580;10.094;2024-03-08T05:04:22;4.70;74.60
7218;DHT22;3650;53.580;10.094;2024-03-08T05:06:49;4.70;74.70
7218;DHT22;3650;53.580;10.094;2024-03-08T05:09:15;4.70;74.80
7218;DHT22;3650;53.580;10.094;2024-03-08T05:11:45;4.70;74.80
7218;DHT22;3650;53.580;10.094;2024-03-08T05:14:14;4.70;75.00
7218;DHT22;3650;53.580;10.094;2024-03-08T05:16:42;4.70;74.90
7218;DHT22;3650;53.580;10.094;2024-03-08T05:19:09;4.80;74.80
7218;DHT22;3650;53.580;10.094;2024-03-08T05:21:36;4.70;74.80
7218;DHT22;3650;53.580;10.094;2024-03-08T05:24:03;4.70;74.90
7218;DHT22;3650;53.580;10.094;2024-03-08T05:26:30;4.70;75.00
7218;DHT22;3650;53.580;10.094;2024-03-08T05:28:59;4.80;75.00
7218;DHT22;3650;53.580;10.094;2024-03-08T05:31:27;4.80;74.90
7218;DHT22;3650;53.580;10.094;2024-03-08T05:33:54;4.80;74.70
7218;DHT22;3650;53.580;10.094;2024-03-08T05:36:21;4.80;74.70
7218;DHT22;3650;53.580;10.094;2024-03-08T05:38:48;4.70;74.80
7218;DHT22;3650;53.580;10.094;2024-03-08T05:41:16;4.70;75.20
7218;DHT22;3650;53.580;10.094;2024-03-08T05:43:43;4.70;75.10
7218;DHT22;3650;53.580;10.094;2024-03-08T05:46:10;4.70;75.10
7218;DHT22;3650;53.580;10.094;2024-03-08T05:48:39;4.80;74.90
7218;DHT22;3650;53.580;10.094;2024-03-08T05:51:05;4.70;74.60
7218;DHT22;3650;53.580;10.094;2024-03-08T05:53:32;4.70;74.60
7218;DHT22;3650;53.580;10.094;2024-03-08T05:55:59;4.70;74.60
7218;DHT22;3650;53.580;10.094;2024-03-08T05:58:27;4.70;74.60
7218;DHT22;3650;53.580;10.094;2024-03-08T06:00:55;4.70;74.90
7218;DHT22;3650;53.580;10.094;2024-03-08T06:03:22;4.70;75.30
7218;DHT22;3650;53.580;10.094;2024-03-08T06:05:50;4.70;75.30
7218;DHT22;3650;53.580;10.094;2024-03-08T06:08:17;4.70;75.30
7218;DHT22;3650;53.580;10.094;2024-03-08T06:10:44;4.70;75.50
7218;DHT22;3650;53.580;10.094;2024-03-08T06:13:11;4.70;75.70
7218;DHT22;3650;53.580;10.094;2024-03-08T06:15:38;4.70;75.90
7218;DHT22;3650;53.580;10.094;2024-03-08T06:18:05;4.70;76.10
7218;DHT22;3650;53.580;10.094;2024-03-08T06:20:33;4.70;76.30
7218;DHT22;3650;53.580;10.094;2024-03-08T06:23:01;4.70;77.30
7218;DHT22;3650;53.580;10.094;2024-03-08T06:25:28;4.70;76.00
7218;DHT22;3650;53.580;10.094;2024-03-08T06:27:55;4.80;75.50
7218;DHT22;3650;53.580;10.094;2024-03-08T06:30:22;4.70;75.00
7218;DHT22;3650;53.580;10.094;2024-03-08T06:32:48;4.70;75.30
7218;DHT22;3650;53.580;10.094;2024-03-08T06:35:15;4.70;75.00
7218;DHT22;3650;53.580;10.094;2024-03-08T06:37:42;4.80;75.30
7218;DHT22;3650;53.580;10.094;2024-03-08T06:40:12;4.70;75.10
7218;DHT22;3650;53.580;10.094;2024-03-08T06:42:40;4.80;76.20
7218;DHT22;3650;53.580;10.094;2024-03-08T06:45:07;4.80;75.20
7218;DHT22;3650;53.580;10.094;2024-03-08T06:47:35;4.80;75.00
7218;DHT22;3650;53.580;10.094;2024-03-08T06:50:02;4.80;75.10
7218;DHT22;3650;53.580;10.094;2024-03-08T06:52:31;4.80;75.10
7218;DHT22;3650;53.580;10.094;2024-03-08T06:54:58;4.80;74.80
7218;DHT22;3650;53.580;10.094;2024-03-08T06:57:28;4.80;74.70
7218;DHT22;3650;53.580;10.094;2024-03-08T06:59:55;4.70;74.50
7218;DHT22;3650;53.580;10.094;2024-03-08T07:02:22;4.80;74.70
7218;DHT22;3650;53.580;10.094;2024-03-08T07:04:51;4.80;74.80
7218;DHT22;3650;53.580;10.094;2024-03-08T07:07:18;4.80;74.80
7218;DHT22;3650;53.580;10.094;2024-03-08T07:09:46;4.80;75.30
7218;DHT22;3650;53.580;10.094;2024-03-08T07:12:15;4.80;75.80
7218;DHT22;3650;53.580;10.094;2024-03-08T07:14:43;4.80;75.90
7218;DHT22;3650;53.580;10.094;2024-03-08T07:17:11;4.90;76.60
7218;DHT22;3650;53.580;10.094;2024-03-08T07:19:38;4.90;78.20
7218;DHT22;3650;53.580;10.094;2024-03-08T07:22:05;5.00;79.20
7218;DHT22;3650;53.580;10.094;2024-03-08T07:24:35;5.00;77.90
7218;DHT22;3650;53.580;10.094;2024-03-08T07:27:21;5.00;76.80
7218;DHT22;3650;53.580;10.094;2024-03-08T07:29:50;5.00;75.80
7218;DHT22;3650;53.580;10.094;2024-03-08T07:32:18;5.00;75.00
7218;DHT22;3650;53.580;10.094;2024-03-08T07:34:47;5.00;74.60
7218;DHT22;3650;53.580;10.094;2024-03-08T07:37:16;5.00;74.30
7218;DHT22;3650;53.580;10.094;2024-03-08T07:39:43;5.10;74.40
7218;DHT22;3650;53.580;10.094;2024-03-08T07:42:10;5.10;74.10
7218;DHT22;3650;53.580;10.094;2024-03-08T07:44:41;5.10;73.90
7218;DHT22;3650;53.580;10.094;2024-03-08T07:47:10;5.10;73.40
7218;DHT22;3650;53.580;10.094;2024-03-08T07:49:37;5.10;72.90
7218;DHT22;3650;53.580;10.094;2024-03-08T07:52:05;5.10;73.10
7218;DHT22;3650;53.580;10.094;2024-03-08T07:54:33;5.20;73.00
7218;DHT22;3650;53.580;10.094;2024-03-08T07:57:00;5.20;73.00
7218;DHT22;3650;53.580;10.094;2024-03-08T07:59:29;5.20;73.10
7218;DHT22;3650;53.580;10.094;2024-03-08T08:01:58;5.20;72.60
7218;DHT22;3650;53.580;10.094;2024-03-08T08:04:27;5.20;72.30
7218;DHT22;3650;53.580;10.094;2024-03-08T08:06:54;5.20;72.10
7218;DHT22;3650;53.580;10.094;2024-03-08T08:09:21;5.20;72.10
7218;DHT22;3650;53.580;10.094;2024-03-08T08:11:54;5.30;72.00
7218;DHT22;3650;53.580;10.094;2024-03-08T08:14:21;5.30;71.80
7218;DHT22;3650;53.580;10.094;2024-03-08T08:16:48;5.30;71.90
7218;DHT22;3650;53.580;10.094;2024-03-08T08:19:18;5.30;72.00
7218;DHT22;3650;53.580;10.094;2024-03-08T08:21:47;5.30;71.60
7218;DHT22;3650;53.580;10.094;2024-03-08T08:24:14;5.40;72.30
7218;DHT22;3650;53.580;10.094;2024-03-08T08:26:41;5.30;72.40
7218;DHT22;3650;53.580;10.094;2024-03-08T08:29:10;5.40;73.10
7218;DHT22;3650;53.580;10.094;2024-03-08T08:31:37;5.40;73.30
7218;DHT22;3650;53.580;10.094;2024-03-08T08:34:04;5.50;73.30
7218;DHT22;3650;53.580;10.094;2024-03-08T08:36:33;5.50;73.30
7218;DHT22;3650;53.580;10.094;2024-03-08T08:39:11;5.50;72.40
7218;DHT22;3650;53.580;10.094;2024-03-08T08:41:39;5.50;72.20
7218;DHT22;3650;53.580;10.094;2024-03-08T08:44:08;5.60;72.30
7218;DHT22;3650;53.580;10.094;2024-03-08T08:46:36;5.60;73.00
7218;DHT22;3650;53.580;10.094;2024-03-08T08:49:03;5.70;72.90
7218;DHT22;3650;53.580;10.094;2024-03-08T08:51:33;5.70;72.10
7218;DHT22;3650;53.580;10.094;2024-03-08T08:54:00;5.70;71.40
7218;DHT22;3650;53.580;10.094;2024-03-08T08:56:29;5.70;71.40
7218;DHT22;3650;53.580;10.094;2024-03-08T08:58:56;5.70;71.40
7218;DHT22;3650;53.580;10.094;2024-03-08T09:01:23;5.70;71.40
7218;DHT22;3650;53.580;10.094;2024-03-08T09:03:50;5.80;72.20
7218;DHT22;3650;53.580;10.094;2024-03-08T09:06:17;5.80;71.20
7218;DHT22;3650;53.580;10.094;2024-03-08T09:08:44;5.80;70.90
7218;DHT22;3650;53.580;10.094;2024-03-08T09:11:11;5.90;70.70
7218;DHT22;3650;53.580;10.094;2024-03-08T09:13:40;5.90;70.40
7218;DHT22;3650;53.580;10.094;2024-03-08T09:16:07;6.00;70.70
7218;DHT22;3650;53.580;10.094;2024-03-08T09:18:36;6.00;70.70
7218;DHT22;3650;53.580;10.094;2024-03-08T09:21:04;6.00;70.30
7218;DHT22;3650;53.580;10.094;2024-03-08T09:23:35;6.10;70.30
7218;DHT22;3650;53.580;10.094;2024-03-08T09:26:02;6.10;70.10
7218;DHT22;3650;53.580;10.094;2024-03-08T09:28:30;6.10;69.90
7218;DHT22;3650;53.580;10.094;2024-03-08T09:30:58;6.20;69.90
7218;DHT22;3650;53.580;10.094;2024-03-08T09:33:26;6.20;69.80
7218;DHT22;3650;53.580;10.094;2024-03-08T09:35:54;6.20;69.50
7218;DHT22;3650;53.580;10.094;2024-03-08T09:38:23;6.30;69.00
7218;DHT22;3650;53.580;10.094;2024-03-08T09:40:50;6.30;68.70
7218;DHT22;3650;53.580;10.094;2024-03-08T09:43:18;6.30;68.70
7218;DHT22;3650;53.580;10.094;2024-03-08T09:45:49;6.40;68.70
7218;DHT22;3650;53.580;10.094;2024-03-08T09:48:18;6.40;68.70
7218;DHT22;3650;53.580;10.094;2024-03-08T09:50:46;6.50;68.60
7218;DHT22;3650;53.580;10.094;2024-03-08T09:53:13;6.50;68.10
7218;DHT22;3650;53.580;10.094;2024-03-08T09:55:40;6.50;67.50
7218;DHT22;3650;53.580;10.094;2024-03-08T09:58:12;6.60;66.20
7218;DHT22;3650;53.580;10.094;2024-03-08T10:00:56;6.60;65.80
7218;DHT22;3650;53.580;10.094;2024-03-08T10:03:25;6.70;66.00
7218;DHT22;3650;53.580;10.094;2024-03-08T10:05:52;6.70;65.90
7218;DHT22;3650;53.580;10.094;2024-03-08T10:08:22;6.70;65.00
7218;DHT22;3650;53.580;10.094;2024-03-08T10:10:51;6.80;63.50
7218;DHT22;3650;53.580;10.094;2024-03-08T10:13:17;6.80;63.60
7218;DHT22;3650;53.580;10.094;2024-03-08T10:15:45;6.90;63.90
7218;DHT22;3650;53.580;10.094;2024-03-08T10:18:12;6.90;64.00
7218;DHT22;3650;53.580;10.094;2024-03-08T10:20:41;6.90;64.20
7218;DHT22;3650;53.580;10.094;2024-03-08T10:23:08;7.00;64.40
7218;DHT22;3650;53.580;10.094;2024-03-08T10:25:36;7.00;63.40
7218;DHT22;3650;53.580;10.094;2024-03-08T10:28:04;7.00;63.10
7218;DHT22;3650;53.580;10.094;2024-03-08T10:30:31;7.10;63.10
7218;DHT22;3650;53.580;10.094;2024-03-08T10:32:59;7.10;63.10
7218;DHT22;3650;53.580;10.094;2024-03-08T10:35:28;7.20;63.50
7218;DHT22;3650;53.580;10.094;2024-03-08T10:37:58;7.20;60.90
7218;DHT22;3650;53.580;10.094;2024-03-08T10:40:29;7.30;58.20
7218;DHT22;3650;53.580;10.094;2024-03-08T10:42:59;7.30;56.40
7218;DHT22;3650;53.580;10.094;2024-03-08T10:45:31;7.30;52.80
7218;DHT22;3650;53.580;10.094;2024-03-08T10:48:20;7.40;53.10
7218;DHT22;3650;53.580;10.094;2024-03-08T10:50:53;7.40;51.50
7218;DHT22;3650;53.580;10.094;2024-03-08T10:53:23;7.50;50.60
7218;DHT22;3650;53.580;10.094;2024-03-08T10:55:52;7.50;50.40
7218;DHT22;3650;53.580;10.094;2024-03-08T10:58:20;7.50;50.70
7218;DHT22;3650;53.580;10.094;2024-03-08T11:00:48;7.50;51.20
7218;DHT22;3650;53.580;10.094;2024-03-08T11:03:47;7.60;50.50
7218;DHT22;3650;53.580;10.094;2024-03-08T11:06:21;7.60;49.00
7218;DHT22;3650;53.580;10.094;2024-03-08T11:08:50;7.60;47.60
7218;DHT22;3650;53.580;10.094;2024-03-08T11:11:25;7.70;47.20
7218;DHT22;3650;53.580;10.094;2024-03-08T11:13:56;7.70;46.70
7218;DHT22;3650;53.580;10.094;2024-03-08T11:16:39;7.70;46.40
7218;DHT22;3650;53.580;10.094;2024-03-08T11:19:26;7.80;45.40
7218;DHT22;3650;53.580;10.094;2024-03-08T11:22:01;7.90;45.20
7218;DHT22;3650;53.580;10.094;2024-03-08T11:24:37;7.90;46.00
7218;DHT22;3650;53.580;10.094;2024-03-08T11:27:05;7.90;45.40
7218;DHT22;3650;53.580;10.094;2024-03-08T11:29:38;7.90;43.30
7218;DHT22;3650;53.580;10.094;2024-03-08T11:32:10;8.00;43.50
7218;DHT22;3650;53.580;10.094;2024-03-08T11:34:37;8.00;43.40
7218;DHT22;3650;53.580;10.094;2024-03-08T11:37:05;8.00;42.40
7218;DHT22;3650;53.580;10.094;2024-03-08T11:39:36;8.10;41.00
7218;DHT22;3650;53.580;10.094;2024-03-08T11:42:04;8.10;40.60
7218;DHT22;3650;53.580;10.094;2024-03-08T11:44:32;8.20;40.70
7218;DHT22;3650;53.580;10.094;2024-03-08T11:46:59;8.20;39.10
7218;DHT22;3650;53.580;10.094;2024-03-08T11:49:25;8.20;39.10
7218;DHT22;3650;53.580;10.094;2024-03-08T11:51:53;8.30;38.80
7218;DHT22;3650;53.580;10.094;2024-03-08T11:54:21;8.30;38.10
7218;DHT22;3650;53.580;10.094;2024-03-08T11:56:51;8.40;38.30
7218;DHT22;3650;53.580;10.094;2024-03-08T11:59:18;8.40;37.80
7218;DHT22;3650;53.580;10.094;2024-03-08T12:01:58;8.40;36.80
7218;DHT22;3650;53.580;10.094;2024-03-08T12:04:25;8.50;38.10
7218;DHT22;3650;53.580;10.094;2024-03-08T12:06:52;8.60;38.70
7218;DHT22;3650;53.580;10.094;2024-03-08T12:09:18;8.60;37.60
7218;DHT22;3650;53.580;10.094;2024-03-08T12:11:49;8.60;37.10
7218;DHT22;3650;53.580;10.094;2024-03-08T12:14:16;8.70;39.00
7218;DHT22;3650;53.580;10.094;2024-03-08T12:16:43;8.70;37.70
7218;DHT22;3650;53.580;10.094;2024-03-08T12:19:10;8.70;37.00
7218;DHT22;3650;53.580;10.094;2024-03-08T12:21:37;8.80;35.80
7218;DHT22;3650;53.580;10.094;2024-03-08T12:24:11;8.80;35.70
7218;DHT22;3650;53.580;10.094;2024-03-08T12:26:42;8.80;35.90
7218;DHT22;3650;53.580;10.094;2024-03-08T12:29:17;8.90;36.20
7218;DHT22;3650;53.580;10.094;2024-03-08T12:31:46;8.90;35.80
7218;DHT22;3650;53.580;10.094;2024-03-08T12:34:13;8.90;35.90
7218;DHT22;3650;53.580;10.094;2024-03-08T12:36:47;9.00;36.40
7218;DHT22;3650;53.580;10.094;2024-03-08T12:39:16;9.00;36.60
7218;DHT22;3650;53.580;10.094;2024-03-08T12:41:48;9.10;36.30
7218;DHT22;3650;53.580;10.094;2024-03-08T12:44:18;9.10;34.70
7218;DHT22;3650;53.580;10.094;2024-03-08T12:46:47;9.20;34.10
7218;DHT22;3650;53.580;10.094;2024-03-08T12:49:15;9.20;34.20
7218;DHT22;3650;53.580;10.094;2024-03-08T12:51:44;9.30;34.10
7218;DHT22;3650;53.580;10.094;2024-03-08T12:54:11;9.30;33.80
7218;DHT22;3650;53.580;10.094;2024-03-08T12:56:38;9.40;32.10
7218;DHT22;3650;53.580;10.094;2024-03-08T12:59:07;9.40;31.80
7218;DHT22;3650;53.580;10.094;2024-03-08T13:01:35;9.40;32.50
7218;DHT22;3650;53.580;10.094;2024-03-08T13:04:04;9.50;33.40
7218;DHT22;3650;53.580;10.094;2024-03-08T13:06:32;9.50;34.00
7218;DHT22;3650;53.580;10.094;2024-03-08T13:08:59;9.60;33.20
7218;DHT22;3650;53.580;10.094;2024-03-08T13:11:31;9.60;33.40
7218;DHT22;3650;53.580;10.094;2024-03-08T13:14:02;9.60;33.90
7218;DHT22;3650;53.580;10.094;2024-03-08T13:16:30;9.70;33.90
7218;DHT22;3650;53.580;10.094;2024-03-08T13:18:59;9.70;34.00
7218;DHT22;3650;53.580;10.094;2024-03-08T13:21:26;9.80;34.30
7218;DHT22;3650;53.580;10.094;2024-03-08T13:23:55;9.80;33.80
7218;DHT22;3650;53.580;10.094;2024-03-08T13:26:24;9.80;33.40
7218;DHT22;3650;53.580;10.094;2024-03-08T13:28:55;9.90;33.20
7218;DHT22;3650;53.580;10.094;2024-03-08T13:31:23;9.90;30.70
7218;DHT22;3650;53.580;10.094;2024-03-08T13:33:50;10.00;27.70
7218;DHT22;3650;53.580;10.094;2024-03-08T13:36:25;10.00;27.60
7218;DHT22;3650;53.580;10.094;2024-03-08T13:38:55;10.10;27.70
7218;DHT22;3650;53.580;10.094;2024-03-08T13:41:24;10.10;25.90
7218;DHT22;3650;53.580;10.094;2024-03-08T13:43:51;10.10;25.80
7218;DHT22;3650;53.580;10.094;2024-03-08T13:46:18;10.10;26.00
7218;DHT22;3650;53.580;10.094;2024-03-08T13:48:45;10.10;26.10
7218;DHT22;3650;53.580;10.094;2024-03-08T13:51:13;10.10;26.70
7218;DHT22;3650;53.580;10.094;2024-03-08T13:53:44;10.10;27.10
7218;DHT22;3650;53.580;10.094;2024-03-08T13:56:11;10.10;27.10
7218;DHT22;3650;53.580;10.094;2024-03-08T13:58:38;10.10;27.20
7218;DHT22;3650;53.580;10.094;2024-03-08T14:01:06;10.10;27.30
7218;DHT22;3650;53.580;10.094;2024-03-08T14:03:37;10.10;27.50
7218;DHT22;3650;53.580;10.094;2024-03-08T14:06:04;10.10;26.00
7218;DHT22;3650;53.580;10.094;2024-03-08T14:08:32;10.10;26.80
7218;DHT22;3650;53.580;10.094;2024-03-08T14:11:01;10.10;27.70
7218;DHT22;3650;53.580;10.094;2024-03-08T14:13:40;10.10;27.60
7218;DHT22;3650;53.580;10.094;2024-03-08T14:16:08;10.10;27.10
7218;DHT22;3650;53.580;10.094;2024-03-08T14:18:36;10.10;27.10
7218;DHT22;3650;53.580;10.094;2024-03-08T14:21:03;10.10;26.90
7218;DHT22;3650;53.580;10.094;2024-03-08T14:23:30;10.10;27.80
7218;DHT22;3650;53.580;10.094;2024-03-08T14:25:58;10.10;27.60
7218;DHT22;3650;53.580;10.094;2024-03-08T14:28:27;10.10;28.00
7218;DHT22;3650;53.580;10.094;2024-03-08T14:30:53;10.10;28.00
7218;DHT22;3650;53.580;10.094;2024-03-08T14:33:20;10.10;27.20
7218;DHT22;3650;53.580;10.094;2024-03-08T14:35:47;10.10;27.90
7218;DHT22;3650;53.580;10.094;2024-03-08T14:38:15;10.10;28.50
7218;DHT22;3650;53.580;10.094;2024-03-08T14:40:43;10.10;29.00
7218;DHT22;3650;53.580;10.094;2024-03-08T14:43:12;10.10;29.40
7218;DHT22;3650;53.580;10.094;2024-03-08T14:45:41;10.10;29.90
7218;DHT22;3650;53.580;10.094;2024-03-08T14:48:08;10.10;29.80
7218;DHT22;3650;53.580;10.094;2024-03-08T14:50:37;10.10;29.70
7218;DHT22;3650;53.580;10.094;2024-03-08T14:53:04;10.10;29.60
7218;DHT22;3650;53.580;10.094;2024-03-08T14:55:32;10.10;29.50
7218;DHT22;3650;53.580;10.094;2024-03-08T14:58:00;10.10;29.40
7218;DHT22;3650;53.580;10.094;2024-03-08T15:00:27;10.10;29.50
7218;DHT22;3650;53.580;10.094;2024-03-08T15:03:00;10.10;29.50
7218;DHT22;3650;53.580;10.094;2024-03-08T15:05:30;10.10;29.50
7218;DHT22;3650;53.580;10.094;2024-03-08T15:07:58;10.10;29.60
7218;DHT22;3650;53.580;10.094;2024-03-08T15:10:26;10.10;29.60
7218;DHT22;3650;53.580;10.094;2024-03-08T15:12:54;10.10;29.60
7218;DHT22;3650;53.580;10.094;2024-03-08T15:15:24;10.10;29.40
7218;DHT22;3650;53.580;10.094;2024-03-08T15:17:51;10.10;29.30
7218;DHT22;3650;53.580;10.094;2024-03-08T15:20:21;10.10;29.30
7218;DHT22;3650;53.580;10.094;2024-03-08T15:22:51;10.10;29.60
7218;DHT22;3650;53.580;10.094;2024-03-08T15:25:20;10.10;28.60
7218;DHT22;3650;53.580;10.094;2024-03-08T15:27:51;10.10;28.50
7218;DHT22;3650;53.580;10.094;2024-03-08T15:30:19;10.10;28.30
7218;DHT22;3650;53.580;10.094;2024-03-08T15:32:48;10.10;28.20
7218;DHT22;3650;53.580;10.094;2024-03-08T15:35:16;10.10;27.80
7218;DHT22;3650;53.580;10.094;2024-03-08T15:37:46;10.10;28.00
7218;DHT22;3650;53.580;10.094;2024-03-08T15:40:13;10.10;28.00
7218;DHT22;3650;53.580;10.094;2024-03-08T15:42:54;10.10;28.00
7218;DHT22;3650;53.580;10.094;2024-03-08T15:45:21;10.10;28.00
7218;DHT22;3650;53.580;10.094;2024-03-08T15:47:48;10.10;27.70
7218;DHT22;3650;53.580;10.094;2024-03-08T15:50:15;10.10;27.90
7218;DHT22;3650;53.580;10.094;2024-03-08T15:52:43;10.10;28.10
7218;DHT22;3650;53.580;10.094;2024-03-08T15:55:15;10.10;28.10
7218;DHT22;3650;53.580;10.094;2024-03-08T15:57:45;10.10;28.30
7218;DHT22;3650;53.580;10.094;2024-03-08T16:00:14;10.00;28.20
7218;DHT22;3650;53.580;10.094;2024-03-08T16:02:59;10.10;28.50
7218;DHT22;3650;53.580;10.094;2024-03-08T16:05:28;10.10;29.60
7218;DHT22;3650;53.580;10.094;2024-03-08T16:07:55;10.00;28.50